Time;durP1;ratioP1;P1;durP2;ratioP2;P2;SDS_P1;SDS_P2;PMS_P1;PMS_P2;Temp;Humidity;BMP_temperature;BMP_pressure;BME280_temperature;BME280_humidity;BME280_pressure;Samples;Min_cycle;Max_cycle;Signal;HPM_P1;HPM_P2
2021/06/24 08:21:01;;;;;;;4.80;2.60;;;21.20;99.90;;;;;;2806925;23;20229;-78
2021/06/24 08:23:28;;;;;;;5.78;2.72;;;21.20;99.90;;;;;;4918535;29;20612;-75
2021/06/24 08:25:54;;;;;;;3.92;2.58;;;21.20;99.90;;;;;;4919267;29;20332;-76
2021/06/24 08:28:21;;;;;;;6.20;2.30;;;21.00;99.90;;;;;;4910934;29;20233;-74
2021/06/24 08:30:48;;;;;;;3.38;2.63;;;20.90;99.90;;;;;;4900658;29;20222;-75
2021/06/24 08:33:15;;;;;;;4.00;2.58;;;20.70;99.90;;;;;;4900398;29;20293;-76
2021/06/24 08:35:42;;;;;;;7.10;3.45;;;20.90;99.90;;;;;;4900414;29;20238;-75
2021/06/24 08:38:11;;;;;;;3.25;2.38;;;21.10;99.90;;;;;;4900193;29;20313;-77
2021/06/24 08:40:39;;;;;;;6.07;2.80;;;21.30;99.90;;;;;;4900590;29;20210;-76
2021/06/24 08:43:07;;;;;;;3.67;2.65;;;21.60;99.90;;;;;;4900760;29;20237;-75
2021/06/24 08:45:33;;;;;;;5.45;2.70;;;21.60;99.90;;;;;;4900026;29;20245;-75
2021/06/24 08:48:02;;;;;;;3.95;2.80;;;21.70;99.90;;;;;;4900321;29;20316;-75
2021/06/24 08:50:30;;;;;;;6.50;2.42;;;22.00;99.90;;;;;;4900102;29;20752;-70
2021/06/24 08:52:57;;;;;;;3.10;2.80;;;22.00;99.90;;;;;;4899918;29;20210;-71
2021/06/24 08:55:36;;;;;;;2.80;2.47;;;21.90;99.90;;;;;;4900297;29;20238;-71
2021/06/24 08:58:03;;;;;;;4.20;2.45;;;22.00;99.90;;;;;;4899693;29;20237;-72
2021/06/24 09:00:30;;;;;;;5.22;2.33;;;21.90;99.90;;;;;;4899771;29;20313;-72
2021/06/24 09:02:59;;;;;;;4.82;2.58;;;21.70;99.90;;;;;;4899057;29;20210;-73
2021/06/24 09:05:56;;;;;;;5.15;2.70;;;21.40;99.90;;;;;;4899719;29;20293;-70
2021/06/24 09:08:26;;;;;;;3.50;2.65;;;21.50;99.90;;;;;;4896215;29;20234;-75
2021/06/24 09:11:17;;;;;;;3.65;2.70;;;21.20;99.90;;;;;;4899471;29;20207;-75
2021/06/24 09:13:46;;;;;;;3.80;2.85;;;21.40;99.90;;;;;;4898926;29;20217;-75
2021/06/24 09:16:21;;;;;;;4.75;3.03;;;21.30;99.90;;;;;;4915986;29;20692;-77
2021/06/24 09:18:49;;;;;;;4.07;3.20;;;21.30;99.90;;;;;;4912187;29;20240;-74
2021/06/24 09:21:21;;;;;;;5.10;2.80;;;21.20;99.90;;;;;;4898636;29;20226;-73
2021/06/24 09:23:50;;;;;;;5.47;2.10;;;21.20;99.90;;;;;;4897160;29;20210;-74
2021/06/24 09:26:19;;;;;;;2.80;2.10;;;21.30;99.90;;;;;;4899669;29;20297;-73
2021/06/24 09:28:49;;;;;;;6.60;2.33;;;21.40;99.90;;;;;;4900243;29;20317;-75
2021/06/24 09:31:27;;;;;;;3.60;2.47;;;21.60;99.90;;;;;;4899604;29;20242;-74
2021/06/24 09:33:56;;;;;;;4.25;2.45;;;21.90;99.90;;;;;;4899914;29;20238;-79
2021/06/24 09:36:36;;;;;;;3.15;2.60;;;22.10;99.90;;;;;;4899470;29;20211;-73
2021/06/24 09:39:06;;;;;;;7.78;2.97;;;22.30;99.90;;;;;;4898793;29;20257;-74
2021/06/24 09:41:34;;;;;;;3.95;2.63;;;22.00;99.90;;;;;;4898949;29;20221;-76
2021/06/24 09:44:18;;;;;;;3.97;2.90;;;22.10;99.90;;;;;;4897735;29;20681;-75
2021/06/24 09:46:46;;;;;;;7.63;2.95;;;21.90;99.90;;;;;;4898211;29;20335;-75
2021/06/24 09:49:24;;;;;;;5.10;2.55;;;21.80;99.90;;;;;;4898056;29;20285;-74
2021/06/24 09:51:52;;;;;;;3.67;2.70;;;21.60;99.90;;;;;;4894009;29;20210;-75
2021/06/24 09:54:20;;;;;;;5.68;3.30;;;21.50;99.90;;;;;;4896871;29;20678;-75
2021/06/24 09:56:51;;;;;;;4.03;3.30;;;21.50;99.90;;;;;;4897756;29;20214;-72
2021/06/24 09:59:19;;;;;;;7.53;3.05;;;21.50;99.90;;;;;;4897732;29;20696;-76
2021/06/24 10:01:47;;;;;;;5.18;2.78;;;21.50;99.90;;;;;;4897741;29;20332;-75
2021/06/24 10:04:22;;;;;;;5.40;3.13;;;21.30;99.90;;;;;;4897822;29;20214;-75
2021/06/24 10:06:49;;;;;;;5.22;3.10;;;20.90;99.90;;;;;;4898779;29;20325;-76
2021/06/24 10:09:17;;;;;;;4.25;3.15;;;20.70;99.90;;;;;;4897253;29;20290;-75
2021/06/24 10:11:45;;;;;;;4.85;3.00;;;20.70;99.90;;;;;;4897307;29;20218;-74
2021/06/24 10:14:15;;;;;;;5.85;2.88;;;20.70;99.90;;;;;;4897294;29;20321;-72
2021/06/24 10:16:44;;;;;;;4.35;2.92;;;20.80;99.90;;;;;;4896921;29;20623;-74
2021/06/24 10:19:14;;;;;;;3.70;2.72;;;20.60;99.90;;;;;;4897873;29;20621;-72
2021/06/24 10:21:41;;;;;;;5.32;2.95;;;20.60;99.90;;;;;;4896752;29;20222;-73
2021/06/24 10:24:12;;;;;;;6.30;3.22;;;20.50;99.90;;;;;;4896831;29;20565;-72
2021/06/24 10:26:43;;;;;;;4.13;2.63;;;20.50;99.90;;;;;;4897555;29;20329;-74
2021/06/24 10:29:14;;;;;;;5.97;2.67;;;20.50;99.90;;;;;;4897033;29;20231;-73
2021/06/24 10:31:44;;;;;;;5.82;2.70;;;20.50;99.90;;;;;;4896784;29;20609;-73
2021/06/24 10:34:11;;;;;;;6.65;2.85;;;20.20;99.90;;;;;;4892046;29;20206;-75
2021/06/24 10:36:38;;;;;;;5.07;2.47;;;19.90;99.90;;;;;;4896676;29;20246;-76
2021/06/24 10:39:07;;;;;;;3.90;2.33;;;20.00;99.90;;;;;;4896070;29;20266;-76
2021/06/24 10:42:02;;;;;;;6.35;2.53;;;20.10;99.90;;;;;;4897030;29;20214;-76
2021/06/24 10:57:47;;;;;;;4.35;2.20;;;20.40;99.90;;;;;;5126107;27;21073;-72
2021/06/24 11:00:35;;;;;;;5.22;2.20;;;21.20;99.90;;;;;;5109348;28;20660;-74
2021/06/24 11:03:03;;;;;;;3.53;2.22;;;21.00;99.90;;;;;;5110224;28;20204;-75
2021/06/24 11:05:38;;;;;;;5.32;2.35;;;21.30;99.90;;;;;;5109362;28;20229;-69
2021/06/24 11:08:12;;;;;;;6.40;2.70;;;21.00;99.90;;;;;;5110365;28;20222;-71
2021/06/24 11:10:52;;;;;;;4.40;2.40;;;20.60;99.90;;;;;;5110781;28;20201;-69
2021/06/24 11:13:46;;;;;;;3.90;2.53;;;21.00;99.90;;;;;;5110798;28;20210;-69
2021/06/24 11:16:32;;;;;;;4.95;2.25;;;21.30;99.90;;;;;;5110488;28;20274;-69
2021/06/24 11:19:07;;;;;;;5.50;2.47;;;21.50;99.90;;;;;;5110211;28;20222;-69
2021/06/24 11:21:50;;;;;;;6.90;2.72;;;21.80;99.90;;;;;;5111166;28;20259;-69
2021/06/24 11:24:19;;;;;;;5.63;3.10;;;22.40;99.90;;;;;;5110788;28;20582;-69
2021/06/24 11:26:48;;;;;;;4.07;3.13;;;22.50;99.90;;;;;;5110431;28;20317;-69
2021/06/24 11:29:24;;;;;;;6.72;3.55;;;22.20;99.90;;;;;;5110138;28;20264;-69
2021/06/24 11:31:55;;;;;;;6.75;2.97;;;22.10;99.90;;;;;;5110742;28;20212;-68
2021/06/24 11:34:33;;;;;;;4.32;3.25;;;22.10;99.90;;;;;;5110548;28;20205;-69
2021/06/24 11:37:02;;;;;;;7.22;3.50;;;22.30;99.90;;;;;;5110204;28;20259;-69
2021/06/24 11:39:32;;;;;;;6.47;3.08;;;22.10;99.90;;;;;;5110033;28;20704;-68
2021/06/24 11:42:02;;;;;;;6.38;3.67;;;22.40;99.90;;;;;;5111087;28;20237;-70
2021/06/24 11:44:32;;;;;;;6.93;3.22;;;22.40;99.90;;;;;;5109670;28;20709;-69
2021/06/24 11:47:01;;;;;;;5.28;3.17;;;22.30;99.90;;;;;;5109642;28;20225;-69
2021/06/24 12:00:56;;;;;;;7.80;4.25;;;22.10;99.90;;;;;;5094279;28;20289;-74
2021/06/24 12:03:22;;;;;;;8.23;3.72;;;21.90;99.90;;;;;;5097122;28;20206;-73
2021/06/24 12:05:53;;;;;;;5.00;3.13;;;21.40;99.90;;;;;;5094141;28;20234;-74
2021/06/24 12:08:22;;;;;;;5.30;3.05;;;21.40;99.90;;;;;;5095476;28;20230;-74
2021/06/24 12:10:50;;;;;;;5.43;3.42;;;21.10;99.90;;;;;;5093660;28;20221;-73
2021/06/24 12:13:32;;;;;;;4.93;3.30;;;20.80;99.90;;;;;;5094831;28;20391;-77
2021/06/24 12:16:01;;;;;;;6.10;3.75;;;21.00;99.90;;;;;;5097308;28;20210;-78
2021/06/24 12:18:38;;;;;;;7.65;4.35;;;21.20;99.90;;;;;;5096516;28;20720;-76
2021/06/24 12:21:08;;;;;;;8.65;3.75;;;21.20;99.90;;;;;;5095705;28;20656;-77
2021/06/24 12:23:43;;;;;;;6.10;3.50;;;21.10;99.90;;;;;;5095883;28;20206;-74
2021/06/24 12:26:12;;;;;;;7.05;3.67;;;20.60;99.90;;;;;;5095280;28;20225;-76
2021/06/24 12:28:43;;;;;;;8.13;4.20;;;20.90;99.90;;;;;;5094327;28;20229;-76
2021/06/24 12:31:19;;;;;;;8.70;4.63;;;21.20;99.90;;;;;;5096231;28;20642;-74
2021/06/24 12:33:48;;;;;;;9.25;4.30;;;21.30;99.90;;;;;;5095317;28;20624;-75
2021/06/24 12:36:15;;;;;;;7.68;4.32;;;21.30;99.90;;;;;;5092160;28;20198;-70
2021/06/24 12:38:44;;;;;;;5.78;4.22;;;21.30;99.90;;;;;;5093572;28;20279;-71
2021/06/24 12:41:13;;;;;;;6.22;3.97;;;21.40;99.90;;;;;;5097137;28;20252;-72
2021/06/24 12:43:41;;;;;;;6.40;4.25;;;21.60;99.90;;;;;;5095881;28;20724;-71
2021/06/24 12:46:08;;;;;;;5.35;3.53;;;21.80;99.90;;;;;;5094834;28;20234;-71
2021/06/24 12:48:38;;;;;;;9.00;4.63;;;21.80;99.90;;;;;;5094336;28;20325;-71
2021/06/24 12:51:06;;;;;;;8.35;4.40;;;22.00;99.90;;;;;;5094497;28;20226;-71
2021/06/24 12:53:36;;;;;;;7.53;4.30;;;21.70;99.90;;;;;;5094917;28;20234;-75
2021/06/24 12:56:05;;;;;;;6.55;4.20;;;21.50;99.90;;;;;;5101430;28;20210;-74
2021/06/24 12:58:36;;;;;;;9.10;4.65;;;21.70;99.90;;;;;;5115656;28;20229;-74
2021/06/24 13:01:15;;;;;;;8.25;4.28;;;21.80;99.90;;;;;;5114923;28;20198;-75
2021/06/24 13:03:46;;;;;;;6.00;4.00;;;22.00;99.90;;;;;;5094788;28;20202;-74
2021/06/24 13:06:20;;;;;;;9.02;5.20;;;22.00;99.90;;;;;;5108880;28;20699;-75
2021/06/24 13:08:52;;;;;;;8.00;5.03;;;22.10;99.90;;;;;;5114221;28;20263;-76
2021/06/24 13:11:21;;;;;;;6.47;4.70;;;21.90;99.90;;;;;;5117397;28;20201;-70
2021/06/24 13:13:55;;;;;;;7.95;5.20;;;21.80;99.90;;;;;;5114797;28;20225;-70
2021/06/24 13:16:24;;;;;;;9.05;4.70;;;21.70;99.90;;;;;;5114602;28;20213;-74
2021/06/24 13:18:54;;;;;;;7.82;4.88;;;21.70;99.90;;;;;;5114931;28;20308;-74
2021/06/24 13:21:21;;;;;;;6.85;4.50;;;21.90;99.90;;;;;;5115290;28;20739;-76
2021/06/24 13:23:48;;;;;;;10.40;5.10;;;21.90;99.90;;;;;;5115197;28;20197;-74
2021/06/24 13:26:18;;;;;;;8.07;4.88;;;21.90;99.90;;;;;;5115111;28;20587;-74
2021/06/24 13:28:56;;;;;;;8.48;4.45;;;21.90;99.90;;;;;;5114834;28;20305;-79
2021/06/24 13:31:26;;;;;;;6.43;4.60;;;22.00;99.90;;;;;;5114333;28;20202;-72
2021/06/24 13:34:00;;;;;;;7.82;4.65;;;21.90;99.90;;;;;;5114726;28;20208;-75
2021/06/24 13:36:28;;;;;;;8.32;4.90;;;21.90;99.90;;;;;;5115191;28;20647;-82
2021/06/24 13:38:58;;;;;;;9.80;6.05;;;21.70;99.90;;;;;;5115354;28;20253;-75
2021/06/24 13:41:27;;;;;;;10.60;5.93;;;21.80;99.90;;;;;;5113979;28;20202;-70
2021/06/24 13:44:10;;;;;;;7.65;4.60;;;22.00;99.90;;;;;;5114739;28;20236;-69
2021/06/24 13:46:38;;;;;;;6.80;4.88;;;22.00;99.90;;;;;;5113655;28;20233;-67
2021/06/24 13:49:10;;;;;;;7.93;5.05;;;21.90;99.90;;;;;;5113936;28;20221;-74
2021/06/24 13:51:44;;;;;;;7.30;4.82;;;21.50;99.90;;;;;;5114030;28;20201;-69
2021/06/24 13:54:11;;;;;;;8.02;5.18;;;21.40;99.90;;;;;;5113802;28;20676;-70
2021/06/24 13:56:38;;;;;;;8.82;5.30;;;21.60;99.90;;;;;;5113802;28;20583;-76
2021/06/24 13:59:05;;;;;;;7.70;5.53;;;21.70;99.90;;;;;;5113553;28;20707;-72
2021/06/24 14:01:33;;;;;;;11.48;6.55;;;21.40;99.90;;;;;;5113555;28;20292;-72
2021/06/24 14:04:01;;;;;;;10.95;5.55;;;21.40;99.90;;;;;;5114177;28;20294;-73
2021/06/24 14:06:35;;;;;;;9.90;6.07;;;21.40;99.90;;;;;;5113545;28;20225;-72
2021/06/24 14:09:02;;;;;;;9.98;5.80;;;21.30;99.90;;;;;;5113906;28;20221;-75
2021/06/24 14:11:29;;;;;;;9.68;5.22;;;21.40;99.90;;;;;;5113961;28;20288;-76
2021/06/24 14:13:56;;;;;;;10.57;5.82;;;21.50;99.90;;;;;;5113714;28;20292;-69
2021/06/24 14:16:23;;;;;;;7.45;5.43;;;21.60;99.90;;;;;;5113408;28;20537;-69
2021/06/24 14:18:50;;;;;;;9.05;5.70;;;21.70;99.90;;;;;;5114387;28;20228;-73
2021/06/24 14:21:19;;;;;;;8.93;5.47;;;21.80;99.90;;;;;;5112935;28;20240;-70
2021/06/24 14:23:49;;;;;;;14.32;6.75;;;21.80;99.90;;;;;;5112947;28;20206;-77
2021/06/24 14:26:17;;;;;;;10.73;6.32;;;21.90;99.90;;;;;;5113487;28;20221;-72
2021/06/24 14:28:44;;;;;;;9.50;6.72;;;22.20;99.90;;;;;;5112116;28;20218;-73
2021/06/24 14:31:11;;;;;;;10.00;6.25;;;22.30;99.90;;;;;;5113405;28;20293;-72
2021/06/24 14:33:38;;;;;;;10.93;6.05;;;22.30;99.90;;;;;;5113532;28;20212;-71
2021/06/24 14:36:07;;;;;;;10.25;6.00;;;22.20;99.90;;;;;;5113159;28;20237;-70
2021/06/24 14:38:35;;;;;;;10.68;6.38;;;22.10;99.90;;;;;;5113260;28;20224;-71
2021/06/24 14:41:03;;;;;;;13.90;6.60;;;22.10;99.90;;;;;;5112929;28;20247;-74
2021/06/24 14:43:30;;;;;;;9.57;6.45;;;22.20;99.90;;;;;;5113032;28;20559;-74
2021/06/24 14:45:57;;;;;;;10.32;6.47;;;22.30;99.90;;;;;;5113160;28;20225;-75
2021/06/24 14:48:24;;;;;;;9.80;6.07;;;22.30;99.90;;;;;;5112939;28;20705;-72
2021/06/24 14:50:52;;;;;;;10.20;6.30;;;22.30;99.90;;;;;;5113512;28;20198;-73
2021/06/24 14:53:19;;;;;;;8.77;6.22;;;22.30;99.90;;;;;;5113530;28;20620;-76
2021/06/24 14:55:46;;;;;;;12.48;6.53;;;22.40;99.90;;;;;;5113569;28;20367;-75
2021/06/24 14:58:14;;;;;;;10.73;7.25;;;22.40;99.90;;;;;;5113078;28;20308;-77
2021/06/24 15:00:41;;;;;;;10.13;7.30;;;22.40;99.90;;;;;;5112856;28;20288;-79
2021/06/24 15:03:09;;;;;;;10.43;7.18;;;22.40;99.90;;;;;;5113259;28;20284;-78
2021/06/24 15:05:37;;;;;;;11.15;7.53;;;22.40;99.90;;;;;;5113238;28;20202;-74
2021/06/24 15:08:04;;;;;;;11.18;6.72;;;22.40;99.90;;;;;;5112598;28;20326;-79
2021/06/24 15:10:31;;;;;;;13.02;7.25;;;22.40;99.90;;;;;;5113138;28;20241;-76
2021/06/24 15:12:58;;;;;;;11.25;7.28;;;22.30;99.90;;;;;;5113020;28;20650;-75
2021/06/24 15:15:26;;;;;;;9.45;7.25;;;22.20;99.90;;;;;;5113700;28;20241;-75
2021/06/24 15:17:53;;;;;;;11.27;6.93;;;22.40;99.90;;;;;;5112839;28;20274;-76
2021/06/24 15:20:21;;;;;;;9.90;6.65;;;22.40;99.90;;;;;;5112823;28;20289;-76
2021/06/24 15:22:48;;;;;;;11.32;7.68;;;22.40;99.90;;;;;;5113039;28;20205;-76
2021/06/24 15:25:17;;;;;;;11.55;7.47;;;22.40;99.90;;;;;;5112639;28;20241;-76
2021/06/24 15:27:45;;;;;;;9.32;7.32;;;22.40;99.90;;;;;;5112757;28;20240;-76
2021/06/24 15:30:13;;;;;;;11.32;7.72;;;22.40;99.90;;;;;;5113263;28;20212;-76
2021/06/24 15:32:42;;;;;;;11.93;7.50;;;22.20;99.90;;;;;;5114456;28;20321;-76
2021/06/24 15:35:12;;;;;;;12.18;9.18;;;21.90;99.90;;;;;;5116678;28;20660;-76
2021/06/24 15:37:39;;;;;;;9.88;7.78;;;21.90;99.90;;;;;;5116393;28;20231;-76
2021/06/24 15:40:08;;;;;;;11.10;7.72;;;21.80;99.90;;;;;;5116369;28;20387;-76
2021/06/24 15:42:36;;;;;;;10.93;7.70;;;21.90;99.90;;;;;;5117110;28;20296;-76
2021/06/24 15:45:05;;;;;;;10.57;7.80;;;22.20;99.90;;;;;;5116858;28;20212;-77
2021/06/24 15:47:33;;;;;;;12.57;7.75;;;22.20;99.90;;;;;;5116063;28;20666;-76
2021/06/24 15:50:02;;;;;;;10.40;7.78;;;22.30;99.90;;;;;;5116638;28;20221;-75
2021/06/24 15:52:28;;;;;;;11.00;7.50;;;22.30;99.90;;;;;;5116534;28;20376;-76
2021/06/24 15:54:55;;;;;;;9.70;7.05;;;22.30;99.90;;;;;;5116278;28;20201;-76
2021/06/24 15:57:22;;;;;;;11.70;7.53;;;22.40;99.90;;;;;;5115937;28;20727;-74
2021/06/24 15:59:49;;;;;;;10.35;7.43;;;22.70;99.90;;;;;;5115870;28;20301;-76
2021/06/24 16:02:16;;;;;;;10.15;6.75;;;22.80;99.90;;;;;;5116245;28;20280;-76
2021/06/24 16:04:43;;;;;;;10.40;7.78;;;22.70;99.90;;;;;;5116461;28;20288;-76
2021/06/24 16:07:13;;;;;;;11.98;7.80;;;22.60;99.90;;;;;;5115724;28;20229;-76
2021/06/24 16:09:40;;;;;;;11.23;7.38;;;22.50;99.90;;;;;;5115801;28;20309;-75
2021/06/24 16:12:08;;;;;;;9.85;6.90;;;22.60;99.90;;;;;;5116080;28;20743;-76
2021/06/24 16:14:35;;;;;;;10.32;7.15;;;22.60;99.90;;;;;;5115765;28;20686;-76
2021/06/24 16:17:02;;;;;;;8.18;7.13;;;22.50;99.90;;;;;;5116035;28;20210;-76
2021/06/24 16:19:28;;;;;;;12.18;7.05;;;22.60;99.90;;;;;;5115849;28;20228;-76
2021/06/24 16:21:55;;;;;;;10.10;6.90;;;22.70;99.90;;;;;;5115754;28;20225;-75
2021/06/24 16:24:23;;;;;;;8.93;6.47;;;22.70;99.90;;;;;;5116111;28;20205;-75
2021/06/24 16:26:50;;;;;;;12.25;7.45;;;22.80;99.90;;;;;;5115763;28;20567;-76
2021/06/24 16:29:18;;;;;;;14.05;7.50;;;22.70;99.90;;;;;;5115435;28;20727;-76
2021/06/24 16:31:45;;;;;;;10.25;7.57;;;22.60;99.90;;;;;;5115895;28;20205;-74
2021/06/24 16:34:12;;;;;;;12.57;7.43;;;22.60;99.90;;;;;;5115869;28;20205;-75
2021/06/24 16:36:40;;;;;;;10.07;7.43;;;22.60;99.90;;;;;;5115444;28;20291;-76
2021/06/24 16:39:08;;;;;;;9.70;7.03;;;22.70;99.90;;;;;;5116556;28;20235;-76
2021/06/24 16:41:38;;;;;;;11.15;7.55;;;22.70;99.90;;;;;;5117045;28;20309;-76
2021/06/24 16:44:05;;;;;;;8.85;6.60;;;22.90;99.90;;;;;;5117034;28;20655;-76
2021/06/24 16:46:32;;;;;;;8.48;6.70;;;22.90;99.90;;;;;;5116731;28;20652;-76
2021/06/24 16:48:59;;;;;;;9.55;6.68;;;22.90;99.90;;;;;;5115255;28;20752;-76
2021/06/24 16:51:26;;;;;;;10.48;6.63;;;22.80;99.90;;;;;;5115601;28;20284;-76
2021/06/24 17:14:38;;;;;;;12.95;7.35;;;22.20;99.90;;;;;;5093354;22;20243;-75
2021/06/24 17:17:05;;;;;;;10.27;6.75;;;22.00;99.90;;;;;;5029857;28;20212;-74
2021/06/24 17:19:33;;;;;;;12.52;6.82;;;21.80;99.90;;;;;;5038405;28;20205;-73
2021/06/24 17:22:03;;;;;;;9.55;6.82;;;21.90;99.90;;;;;;5035725;28;20714;-74
2021/06/24 17:24:30;;;;;;;10.88;7.55;;;21.90;99.90;;;;;;5018868;28;20197;-75
2021/06/24 17:26:57;;;;;;;11.40;8.00;;;21.90;99.90;;;;;;5014030;28;20288;-75
2021/06/24 17:29:24;;;;;;;13.20;6.85;;;21.80;99.90;;;;;;5015363;28;20252;-75
2021/06/24 17:31:53;;;;;;;10.48;6.85;;;21.90;99.90;;;;;;5014746;28;20726;-75
2021/06/24 17:34:20;;;;;;;11.15;7.55;;;21.90;99.90;;;;;;5016746;28;20309;-75
2021/06/24 17:36:47;;;;;;;10.73;7.45;;;22.00;99.90;;;;;;5015420;28;20583;-75
2021/06/24 17:39:14;;;;;;;11.25;6.70;;;22.00;99.90;;;;;;5015623;28;20209;-73
2021/06/24 17:41:41;;;;;;;9.07;7.13;;;22.00;99.90;;;;;;5015345;28;20252;-74
2021/06/24 17:44:09;;;;;;;10.63;6.35;;;22.00;99.90;;;;;;5014648;28;20293;-74
2021/06/24 17:46:36;;;;;;;9.82;6.50;;;21.90;99.90;;;;;;5014128;28;20635;-74
2021/06/24 17:49:04;;;;;;;10.30;7.07;;;21.90;99.90;;;;;;5014277;28;20236;-74
2021/06/24 17:51:32;;;;;;;9.57;7.18;;;21.90;99.90;;;;;;5013928;28;20308;-75
2021/06/24 17:53:59;;;;;;;9.55;6.90;;;21.90;99.90;;;;;;5014893;28;20256;-74
2021/06/24 17:56:26;;;;;;;10.82;7.20;;;21.90;99.90;;;;;;5014815;28;20210;-73
2021/06/24 17:58:53;;;;;;;9.20;6.70;;;21.80;99.90;;;;;;5013790;28;20214;-73
2021/06/24 18:01:20;;;;;;;9.80;7.00;;;21.80;99.90;;;;;;5014135;28;20751;-73
2021/06/24 18:03:47;;;;;;;10.23;7.47;;;21.70;99.90;;;;;;5014069;28;20222;-74
2021/06/24 18:06:15;;;;;;;11.88;7.38;;;21.70;99.90;;;;;;5014318;28;20206;-74
2021/06/24 18:08:42;;;;;;;10.18;6.78;;;21.70;99.90;;;;;;5013851;28;20330;-74
2021/06/24 18:11:10;;;;;;;9.95;6.38;;;21.60;99.90;;;;;;5014069;28;20645;-73
2021/06/24 18:13:40;;;;;;;10.05;6.80;;;21.60;99.90;;;;;;4996015;28;20313;-74
2021/06/24 18:16:08;;;;;;;7.88;6.47;;;21.70;99.90;;;;;;5013818;28;20213;-74
2021/06/24 18:18:35;;;;;;;10.93;6.93;;;21.60;99.90;;;;;;5013112;28;20296;-73
2021/06/24 18:21:02;;;;;;;10.02;7.93;;;21.50;99.90;;;;;;5013526;28;20292;-73
2021/06/24 18:23:30;;;;;;;10.13;7.75;;;21.50;99.90;;;;;;5013694;28;20696;-74
2021/06/24 18:25:58;;;;;;;14.48;8.45;;;21.40;99.90;;;;;;5013381;28;20260;-73
2021/06/24 18:28:25;;;;;;;12.75;8.57;;;21.40;99.90;;;;;;5013706;28;20244;-74
2021/06/24 18:30:52;;;;;;;13.35;8.50;;;21.30;99.90;;;;;;5013693;28;20316;-74
2021/06/24 18:33:19;;;;;;;15.30;8.70;;;21.20;99.90;;;;;;5012914;28;20312;-74
2021/06/24 18:35:48;;;;;;;14.60;9.55;;;21.10;99.90;;;;;;5013765;28;20723;-74
2021/06/24 18:38:17;;;;;;;15.18;9.27;;;21.20;99.90;;;;;;5014791;28;20206;-73
2021/06/24 18:40:46;;;;;;;11.50;9.07;;;21.20;99.90;;;;;;5013428;28;20209;-75
2021/06/24 18:43:14;;;;;;;14.00;9.52;;;21.10;99.90;;;;;;5016113;28;20224;-73
2021/06/24 18:45:41;;;;;;;14.07;8.45;;;21.10;99.90;;;;;;5032252;28;20205;-73
2021/06/24 18:48:09;;;;;;;14.48;9.15;;;20.90;99.90;;;;;;5026349;28;20225;-74
2021/06/24 18:50:36;;;;;;;13.25;8.65;;;20.80;99.90;;;;;;5013120;28;20277;-73
2021/06/24 18:53:03;;;;;;;14.32;9.10;;;20.80;99.90;;;;;;5012596;28;20745;-73
2021/06/24 18:55:39;;;;;;;14.63;9.75;;;20.80;99.90;;;;;;5013197;28;20293;-72
2021/06/24 18:58:08;;;;;;;16.60;9.80;;;20.80;99.90;;;;;;5013113;28;20551;-73
2021/06/24 19:00:35;;;;;;;14.35;9.40;;;20.70;99.90;;;;;;5012999;28;20288;-73
2021/06/24 19:03:01;;;;;;;17.38;10.75;;;20.60;99.90;;;;;;5011667;28;20247;-75
2021/06/24 19:05:29;;;;;;;15.38;9.38;;;20.50;99.90;;;;;;5012271;28;20213;-76
2021/06/24 19:07:55;;;;;;;16.70;9.37;;;20.60;99.90;;;;;;5014855;28;20228;-76
2021/06/24 19:10:23;;;;;;;14.60;9.65;;;20.50;99.90;;;;;;5017212;28;20241;-77
2021/06/24 19:12:50;;;;;;;13.57;9.33;;;20.40;99.90;;;;;;5016829;28;20221;-76
2021/06/24 19:15:18;;;;;;;12.82;8.27;;;20.30;99.90;;;;;;5016576;28;20767;-78
2021/06/24 19:17:45;;;;;;;14.93;8.57;;;20.30;99.90;;;;;;5016502;28;20296;-77
2021/06/24 19:20:13;;;;;;;14.10;8.35;;;20.30;99.90;;;;;;5016921;28;20591;-74
2021/06/24 19:22:40;;;;;;;14.20;7.97;;;20.10;99.90;;;;;;5016840;28;20312;-74
2021/06/24 19:25:08;;;;;;;12.13;7.57;;;20.00;99.90;;;;;;5017900;28;20301;-75
2021/06/24 19:27:35;;;;;;;10.63;6.97;;;19.80;99.90;;;;;;5016582;28;20300;-77
2021/06/24 19:30:03;;;;;;;14.37;7.97;;;19.80;99.90;;;;;;5016689;28;20228;-75
2021/06/24 19:32:32;;;;;;;11.52;7.22;;;19.80;99.90;;;;;;5016309;28;20316;-77
2021/06/24 19:34:58;;;;;;;12.37;7.43;;;19.70;99.90;;;;;;5016701;28;20206;-75
2021/06/24 19:37:25;;;;;;;11.43;7.05;;;19.70;99.90;;;;;;5016106;28;20619;-75
2021/06/24 19:39:52;;;;;;;9.50;6.53;;;19.60;99.90;;;;;;5016424;28;20405;-77
2021/06/24 19:42:19;;;;;;;13.40;6.57;;;19.60;99.90;;;;;;5016561;28;20316;-77
2021/06/24 19:44:46;;;;;;;11.05;6.80;;;19.60;99.90;;;;;;5016371;28;20312;-74
2021/06/24 19:47:13;;;;;;;9.50;6.45;;;19.50;99.90;;;;;;5016378;28;20296;-74
2021/06/24 19:49:42;;;;;;;10.43;6.93;;;19.40;99.90;;;;;;5015928;28;20269;-74
2021/06/24 19:52:09;;;;;;;10.43;6.07;;;19.30;99.90;;;;;;5016164;28;20244;-74
2021/06/24 19:54:36;;;;;;;11.57;6.65;;;19.40;99.90;;;;;;5015765;28;20213;-74
2021/06/24 19:57:03;;;;;;;9.88;5.93;;;19.30;99.90;;;;;;5016102;28;20300;-74
2021/06/24 19:59:30;;;;;;;8.70;6.07;;;19.20;99.90;;;;;;5015939;28;20300;-74
2021/06/24 20:01:57;;;;;;;10.17;6.27;;;19.10;99.90;;;;;;5015993;28;20256;-75
2021/06/24 20:04:24;;;;;;;10.50;6.73;;;19.00;99.90;;;;;;5015805;28;20293;-75
2021/06/24 20:06:52;;;;;;;10.43;6.43;;;18.90;99.90;;;;;;5015719;28;20206;-77
2021/06/24 20:09:19;;;;;;;10.47;6.87;;;18.90;99.90;;;;;;5015490;28;20269;-77
2021/06/24 20:11:46;;;;;;;11.33;6.70;;;18.80;99.90;;;;;;5015559;28;20241;-75
2021/06/24 20:14:12;;;;;;;12.83;7.00;;;18.70;99.90;;;;;;5015549;28;20210;-78
2021/06/24 20:16:39;;;;;;;11.97;6.90;;;18.60;99.90;;;;;;5015677;28;20248;-73
2021/06/24 20:19:06;;;;;;;10.60;6.83;;;18.60;99.90;;;;;;5015237;28;20563;-77
2021/06/24 20:21:33;;;;;;;17.03;10.17;;;18.50;99.90;;;;;;5015627;28;20209;-77
2021/06/24 20:24:02;;;;;;;12.27;7.67;;;18.50;99.90;;;;;;5015200;28;20316;-77
2021/06/24 20:26:28;;;;;;;11.90;6.90;;;18.40;99.90;;;;;;5015056;28;20237;-77
2021/06/24 20:28:55;;;;;;;11.97;6.97;;;18.40;99.90;;;;;;5014843;28;20226;-77
2021/06/24 20:31:22;;;;;;;15.10;7.70;;;18.30;99.90;;;;;;5014591;28;20201;-77
2021/06/24 20:33:50;;;;;;;13.57;7.30;;;18.30;99.90;;;;;;5015141;28;20317;-78
2021/06/24 20:36:17;;;;;;;10.47;6.73;;;18.20;99.90;;;;;;5015493;28;20300;-77
2021/06/24 20:38:44;;;;;;;11.63;7.07;;;18.20;99.90;;;;;;5015508;28;20236;-77
2021/06/24 20:41:12;;;;;;;11.83;7.00;;;18.20;99.90;;;;;;5015357;28;20247;-77
2021/06/24 20:43:40;;;;;;;10.77;6.70;;;18.10;99.90;;;;;;5015411;28;20238;-77
2021/06/24 20:46:08;;;;;;;9.63;6.47;;;18.10;99.90;;;;;;5015243;28;20206;-77
2021/06/24 20:48:36;;;;;;;7.80;5.87;;;18.00;99.90;;;;;;5014629;28;20328;-78
2021/06/24 20:51:04;;;;;;;12.37;7.10;;;18.00;99.90;;;;;;5014761;28;20292;-77
2021/06/24 20:53:31;;;;;;;11.60;6.60;;;17.90;99.90;;;;;;5014805;28;20316;-77
2021/06/24 20:55:58;;;;;;;10.43;6.40;;;17.90;99.90;;;;;;5014818;28;20320;-76
2021/06/24 20:58:29;;;;;;;9.63;6.20;;;17.90;99.90;;;;;;5014355;28;20683;-77
2021/06/24 21:01:01;;;;;;;9.77;6.73;;;17.80;99.90;;;;;;5014790;28;20664;-77
2021/06/24 21:03:28;;;;;;;10.33;6.00;;;17.80;99.90;;;;;;5014609;28;20233;-77
2021/06/24 21:05:55;;;;;;;10.10;5.97;;;17.70;99.90;;;;;;5014998;28;20304;-77
2021/06/24 21:08:23;;;;;;;15.73;6.73;;;17.60;99.90;;;;;;5013655;28;20687;-75
2021/06/24 21:10:49;;;;;;;10.60;6.23;;;17.50;99.90;;;;;;5014817;28;20217;-77
2021/06/24 21:13:16;;;;;;;11.00;6.50;;;17.40;99.90;;;;;;5015333;28;20557;-76
2021/06/24 21:15:45;;;;;;;10.77;6.60;;;17.40;99.90;;;;;;5014549;28;20313;-76
2021/06/24 21:18:12;;;;;;;9.97;6.40;;;17.30;99.90;;;;;;5014397;28;20240;-75
2021/06/24 21:20:39;;;;;;;9.90;6.10;;;17.20;99.90;;;;;;5014098;28;20679;-76
2021/06/24 21:23:05;;;;;;;10.63;6.60;;;17.10;99.90;;;;;;5013683;28;20317;-76
2021/06/24 21:25:33;;;;;;;9.90;6.33;;;17.00;99.90;;;;;;5013670;28;20304;-76
2021/06/24 21:27:59;;;;;;;9.73;6.03;;;17.10;99.90;;;;;;5012814;28;20248;-76
2021/06/24 21:30:26;;;;;;;10.93;6.30;;;17.10;99.90;;;;;;5013264;28;20277;-76
2021/06/24 21:32:54;;;;;;;9.13;6.17;;;17.00;99.90;;;;;;5013960;28;20328;-76
2021/06/24 21:35:22;;;;;;;10.87;6.73;;;17.00;99.90;;;;;;5014255;28;20290;-76
2021/06/24 21:37:49;;;;;;;10.67;5.83;;;17.00;99.90;;;;;;5014596;28;20643;-76
2021/06/24 21:40:17;;;;;;;9.67;5.93;;;16.90;99.90;;;;;;5014181;28;20288;-76
2021/06/24 21:42:44;;;;;;;8.97;5.80;;;16.80;99.90;;;;;;5013971;28;20669;-76
2021/06/24 21:45:12;;;;;;;10.27;6.20;;;16.70;99.90;;;;;;5014415;28;20307;-76
2021/06/24 21:47:39;;;;;;;9.83;6.57;;;16.60;99.90;;;;;;5015165;28;20206;-76
2021/06/24 21:50:08;;;;;;;9.73;6.07;;;16.50;99.90;;;;;;5014639;28;20320;-76
2021/06/24 21:52:35;;;;;;;10.67;5.97;;;16.50;99.90;;;;;;5014175;28;20229;-76
2021/06/24 21:55:03;;;;;;;9.33;5.93;;;16.50;99.90;;;;;;5014033;28;20237;-76
2021/06/24 21:57:29;;;;;;;10.00;6.50;;;16.40;99.90;;;;;;5013729;28;20731;-76